tititudorancea.com
Station Historical Data
Daily Summary for September 1, 2018 Units:  Metric    English   Both
« Previous Day
Next Day »
Daily Weekly Monthly Yearly Custom
  High: Low: Average:
Temperature: -17.8 °C 3.7 °C 8.7 °C
Dew Point: -17.8 °C 2.6 °C 6.1 °C
Humidity: Humidity % 72 % 84 %
Wind Speed: 0 km/h 0 km/h 15 km/h
Wind Gust: 0 km/h - -
Wind:- - SW
Pressure: 0 hPa 1005 hPa -
Precipitation: 0.61 mm    
Historical Graphs
 
 
Ararat weather Find more about Weather in Ararat, AU


 



 


Tabular Data for September 1, 2018
Time Temperature Dew Point Pressure Wind Wind Speed Wind Gust Humidity Rainfall Rate (Hourly)
-17.8 °C -17.8 °C 0 hPa Calm     Humidity % 0 mm
00:04 10.4 °C 8 °C 1005 hPa West 8 km/h 6.6 km/h 85 % 0 mm
00:09 10.3 °C 7.9 °C 1005 hPa West 5.6 km/h 5.1 km/h 85 % 0 mm
00:14 10.2 °C 7.8 °C 1005 hPa West 9.7 km/h 8.9 km/h 85 % 0 mm
00:19 10.1 °C 7.7 °C 1005.3 hPa West 8 km/h 6.8 km/h 85 % 0 mm
00:24 9.9 °C 7.5 °C 1005.3 hPa West 8 km/h 7.6 km/h 85 % 0 mm
00:29 9.8 °C 7.6 °C 1005.3 hPa West 7.4 km/h 5.3 km/h 86 % 0 mm
00:34 9.7 °C 7.5 °C 1005.3 hPa West 8 km/h 6.1 km/h 86 % 0 mm
00:39 9.7 °C 7.4 °C 1005.3 hPa West 5.6 km/h 3.9 km/h 86 % 0 mm
00:44 9.6 °C 7.6 °C 1005.3 hPa West 5.6 km/h 4.3 km/h 87 % 0 mm
00:49 9.6 °C 7.5 °C 1005.3 hPa West 7.4 km/h 6.4 km/h 87 % 0 mm
00:54 9.6 °C 7.6 °C 1005.3 hPa West 13 km/h 9 km/h 87 % 0 mm
00:59 9.7 °C 7.7 °C 1005.3 hPa West 5.6 km/h 5 km/h 87 % 0 mm
01:04 9.7 °C 7.5 °C 1005.3 hPa West 7.4 km/h 7.1 km/h 86 % 0 mm
01:09 9.8 °C 7.6 °C 1005.3 hPa West 9.3 km/h 6.3 km/h 86 % 0 mm
01:14 9.8 °C 7.4 °C 1005.3 hPa West 9.3 km/h 7.2 km/h 85 % 0 mm
01:19 9.8 °C 7.4 °C 1005.3 hPa West 8 km/h 5.1 km/h 85 % 0 mm
01:24 9.9 °C 7.5 °C 1005.3 hPa West 5.6 km/h 3.4 km/h 85 % 0 mm
01:29 9.8 °C 7.4 °C 1005.3 hPa West 4.8 km/h 3.2 km/h 85 % 0 mm
01:34 9.8 °C 7.4 °C 1005.6 hPa West 5.6 km/h 6.6 km/h 85 % 0 mm
01:39 9.8 °C 7.4 °C 1005.3 hPa West 5.6 km/h 5.8 km/h 85 % 0 mm
01:44 9.8 °C 7.4 °C 1005.3 hPa West 5.6 km/h 4.8 km/h 85 % 0 mm
01:49 9.8 °C 7.4 °C 1005.3 hPa West 3.7 km/h 2.4 km/h 85 % 0 mm
01:54 9.8 °C 7.4 °C 1005.3 hPa West 9.3 km/h 4.7 km/h 85 % 0 mm
01:59 9.9 °C 7.4 °C 1005.3 hPa West 3.7 km/h 1.9 km/h 84 % 0 mm
02:04 9.9 °C 7.4 °C 1005.6 hPa West 5.6 km/h 4 km/h 84 % 0 mm
02:09 9.9 °C 7.4 °C 1005.6 hPa West 3.7 km/h 2.4 km/h 84 % 0 mm
02:14 9.9 °C 7.4 °C 1005.6 hPa West 5.6 km/h 1.9 km/h 84 % 0 mm
02:19 9.9 °C 7.3 °C 1005.6 hPa West 3.7 km/h   84 % 0 mm
02:24 9.9 °C 7.5 °C 1005.6 hPa West 4.8 km/h 2.9 km/h 85 % 0 mm
02:29 9.9 °C 7.4 °C 1005.6 hPa West 5.6 km/h 4.5 km/h 84 % 0 mm
02:34 9.9 °C 7.6 °C 1005.6 hPa West 5.6 km/h 5.8 km/h 85 % 0 mm
02:39 10 °C 7.6 °C 1005.6 hPa West 5.6 km/h 5.3 km/h 85 % 0 mm
02:44 10 °C 7.8 °C 1005.6 hPa West 7.4 km/h 3.9 km/h 86 % 0 mm
02:49 10.1 °C 7.8 °C 1005.6 hPa West 5.6 km/h 3.7 km/h 86 % 0 mm
02:54 10.1 °C 7.8 °C 1006 hPa North 6.4 km/h 5 km/h 86 % 0 mm
02:59 10.1 °C 8.2 °C 1006 hPa West 11.1 km/h 7.9 km/h 88 % 0 mm
03:04 10.1 °C 8.2 °C 1006 hPa West 11.1 km/h 7.4 km/h 88 % 0.2 mm
03:09 10.2 °C 8.4 °C 1006 hPa WSW 20.4 km/h 14.2 km/h 89 % 0.2 mm
03:14 10.2 °C 8.5 °C 1006.3 hPa WSW 17.7 km/h 8.4 km/h 89 % 0.2 mm
03:19 10.2 °C 8.4 °C 1006.3 hPa WSW 24.1 km/h 23.3 km/h 89 % 0.2 mm
03:24 10.2 °C 8.4 °C 1006.3 hPa SW 14.8 km/h 8 km/h 89 % 0.2 mm
03:29 10.1 °C 8.4 °C 1006.3 hPa SW 18.5 km/h 9 km/h 89 % 0.2 mm
03:34 10.1 °C 8.5 °C 1006.3 hPa SW 20.4 km/h 14.2 km/h 90 % 0.2 mm
03:39 10 °C 8.3 °C 1006.3 hPa SW 29.6 km/h 20.6 km/h 89 % 0.2 mm
03:44 9.9 °C 8.2 °C 1006.7 hPa SW 22.2 km/h 10.1 km/h 89 % 0.2 mm
03:49 9.7 °C 8 °C 1006.7 hPa SW 25.9 km/h 21.1 km/h 89 % 0.2 mm
03:54 9.5 °C 7.9 °C 1006.7 hPa SW 22.2 km/h 18.7 km/h 90 % 0.2 mm
03:59 9.3 °C 7.7 °C 1006.7 hPa SW 22.2 km/h 13 km/h 90 % 0.2 mm
04:04 9.2 °C 7.8 °C 1006.7 hPa SW 20.4 km/h 15.9 km/h 91 % 0 mm
04:09 9.2 °C 7.8 °C 1007 hPa SW 14.8 km/h 15.9 km/h 91 % 0 mm
04:14 9.1 °C 7.7 °C 1007 hPa SW 24.1 km/h 14.2 km/h 91 % 0 mm
04:19 8.9 °C 7.6 °C 1007 hPa SSW 29.6 km/h 18.7 km/h 91 % 0 mm
04:24 8.9 °C 7.5 °C 1007.3 hPa SW 35.4 km/h 26.6 km/h 91 % 0 mm
04:29 8.7 °C 7.3 °C 1007.3 hPa SW 31.5 km/h 17.1 km/h 91 % 0 mm
04:34 8.4 °C 7 °C 1007.3 hPa SW 48.1 km/h 27.2 km/h 91 % 0 mm
04:39 8.2 °C 6.8 °C 1007.7 hPa SW 24.1 km/h 17.9 km/h 91 % 0 mm
04:44 8.1 °C 6.7 °C 1007.7 hPa SW 31.5 km/h 20.6 km/h 91 % 0 mm
04:49 8.1 °C 6.7 °C 1007.7 hPa SW 31.5 km/h 15.4 km/h 91 % 0 mm
04:54 8.1 °C 6.7 °C 1008 hPa SW 25.9 km/h 15.3 km/h 91 % 0 mm
04:59 8.1 °C 6.7 °C 1008 hPa SW 18.5 km/h 15.8 km/h 91 % 0 mm
05:04 8.2 °C 6.8 °C 1008 hPa SSW 18.5 km/h 14.2 km/h 91 % 0 mm
05:09 8.2 °C 6.8 °C 1008 hPa SSW 20.4 km/h 6.1 km/h 91 % 0 mm
05:14 8.2 °C 6.8 °C 1008.4 hPa North 18.5 km/h 9.5 km/h 91 % 0 mm
05:19 8.2 °C 6.6 °C 1008.4 hPa SW 18.5 km/h 13.7 km/h 90 % 0 mm
05:24 8.2 °C 6.7 °C 1008.4 hPa SSW 18.5 km/h 15.1 km/h 90 % 0 mm
05:29 8.2 °C 6.7 °C 1008.7 hPa SW 22.2 km/h 13.2 km/h 90 % 0 mm
05:34 8.2 °C 6.5 °C 1008.7 hPa SSW 20.4 km/h 11.3 km/h 89 % 0 mm
05:39 8.2 °C 6.5 °C 1008.7 hPa SW 16.7 km/h 8.7 km/h 89 % 0 mm
05:44 8.2 °C 6.5 °C 1008.7 hPa SW 16.7 km/h 11.3 km/h 89 % 0 mm
05:49 8.2 °C 6.3 °C 1009 hPa SW 13 km/h 10 km/h 88 % 0 mm
05:54 8.2 °C 6.3 °C 1009 hPa SW 18.5 km/h 10.5 km/h 88 % 0 mm
05:59 8.3 °C 6.2 °C 1009 hPa SW 18.5 km/h 8 km/h 87 % 0 mm
06:04 8.3 °C 6.2 °C 1009 hPa SW 18.5 km/h 13.7 km/h 87 % 0 mm
06:09 8.3 °C 6.2 °C 1009 hPa SW 18.5 km/h 10 km/h 87 % 0 mm
06:14 8.3 °C 6.1 °C 1009 hPa SW 14.8 km/h 10.9 km/h 86 % 0 mm
06:19 8.3 °C 6.1 °C 1009 hPa SW 6.4 km/h 6.1 km/h 86 % 0 mm
06:24 8.2 °C 5.5 °C 1009 hPa SW 18.5 km/h 10.9 km/h 83 % 0 mm
06:29 8.4 °C 5.6 °C 1009 hPa SW 12.9 km/h 8.5 km/h 82 % 0 mm
06:34 8.6 °C 5.2 °C 1009 hPa SW 16.7 km/h 10.6 km/h 79 % 0 mm
06:39 8.7 °C 5.2 °C 1009 hPa SW 17.7 km/h 11.6 km/h 79 % 0 mm
06:44 8.7 °C 5.3 °C 1009 hPa WSW 25.9 km/h 7.7 km/h 79 % 0 mm
06:49 8.7 °C 5.3 °C 1009.4 hPa SW 17.7 km/h 7.9 km/h 79 % 0 mm
06:54 8.7 °C 5.4 °C 1009.4 hPa SW 14.8 km/h 8.2 km/h 80 % 0 mm
06:59 8.6 °C 5.6 °C 1009.7 hPa WSW 31.5 km/h 14.3 km/h 81 % 0 mm
07:04 8.4 °C 5.6 °C 1009.7 hPa SW 16.7 km/h 10.8 km/h 82 % 0 mm
07:09 8.3 °C 5.6 °C 1009.7 hPa SW 14.8 km/h 10 km/h 83 % 0 mm
07:14 8.2 °C 5.7 °C 1009.7 hPa SW 11.1 km/h 9 km/h 84 % 0 mm
07:19 8.1 °C 5.6 °C 1009.7 hPa SW 13 km/h 9.2 km/h 84 % 0 mm
07:24 8 °C 5.6 °C 1009.7 hPa SW 9.3 km/h 6.1 km/h 85 % 0 mm
07:29 8 °C 5.6 °C 1009.7 hPa SW 8 km/h 7.9 km/h 85 % 0 mm
07:34 8.1 °C 5.7 °C 1010 hPa SW 18.5 km/h 7.6 km/h 85 % 0 mm
07:39 8.2 °C 5.8 °C 1010 hPa SW 9.7 km/h 7.9 km/h 85 % 0 mm
07:44 8.3 °C 5.7 °C 1010 hPa SW 14.8 km/h 9 km/h 84 % 0 mm
07:49 8.4 °C 5.9 °C 1010.4 hPa WSW 14.5 km/h 12.2 km/h 84 % 0 mm
07:54 8.6 °C 5.9 °C 1010.4 hPa WSW 12.9 km/h 8.5 km/h 83 % 0 mm
07:59 8.7 °C 5.8 °C 1010.4 hPa West 18.5 km/h 11.7 km/h 82 % 0 mm
08:04 8.8 °C 5.9 °C 1010.4 hPa WSW 11.1 km/h 11.4 km/h 82 % 0 mm
08:09 8.9 °C 5.8 °C 1010.4 hPa West 14.8 km/h 10.5 km/h 81 % 0 mm
08:14 9 °C 5.7 °C 1010.7 hPa WSW 18.5 km/h 9.2 km/h 80 % 0 mm
08:19 9.1 °C 5.8 °C 1010.7 hPa WSW 18.5 km/h 9.3 km/h 80 % 0 mm
08:24 9.1 °C 5.7 °C 1010.7 hPa North 18.5 km/h 11.4 km/h 79 % 0 mm
08:29 9.3 °C 5.8 °C 1011.1 hPa West 25.9 km/h 16.3 km/h 79 % 0 mm
08:34 9.4 °C 6 °C 1011.1 hPa SW 17.7 km/h 12.4 km/h 79 % 0 mm
08:39 9.4 °C 5.8 °C 1011.1 hPa WSW 18.5 km/h 15.3 km/h 78 % 0 mm
08:44 9.4 °C 5.6 °C 1011.1 hPa WSW 16.7 km/h 16.7 km/h 77 % 0 mm
08:49 9.3 °C 5.5 °C 1011.1 hPa WSW 14.8 km/h 15.9 km/h 77 % 0 mm
08:54 9.3 °C 5.4 °C 1011.1 hPa SW 16.7 km/h 12.6 km/h 77 % 0 mm
08:59 9.4 °C 5.6 °C 1011.1 hPa SW 13 km/h 12.6 km/h 77 % 0 mm
09:04 9.6 °C 5.7 °C 1011.1 hPa West 24.1 km/h 14.5 km/h 77 % 0 mm
09:09 9.7 °C 5.9 °C 1011.1 hPa West 14.8 km/h 10.3 km/h 77 % 0 mm
09:14 9.8 °C 5.8 °C 1011.4 hPa North 20.9 km/h 15.6 km/h 76 % 0 mm
09:19 10 °C 6.2 °C 1011.4 hPa WSW 14.8 km/h 11.9 km/h 77 % 0 mm
09:24 10.3 °C 6.2 °C 1011.4 hPa WSW 24.1 km/h 19.2 km/h 76 % 0 mm
09:29 10.2 °C 5.9 °C 1011.4 hPa SW 20.4 km/h 14.6 km/h 75 % 0 mm
09:34 10 °C 5.9 °C 1011.4 hPa WSW 14.8 km/h 7.2 km/h 76 % 0 mm
09:39 10 °C 6.2 °C 1011.7 hPa West 19.3 km/h 13.4 km/h 77 % 0 mm
09:44 9.9 °C 6.3 °C 1011.7 hPa WSW 18.5 km/h 14 km/h 78 % 0 mm
09:49 10 °C 6.3 °C 1011.7 hPa WSW 14.8 km/h 9.2 km/h 78 % 0 mm
09:54 10 °C 6.3 °C 1011.7 hPa West 20.4 km/h 10.8 km/h 78 % 0 mm
09:59 9.9 °C 6.2 °C 1011.7 hPa WSW 20.4 km/h 11.9 km/h 78 % 0 mm
10:04 9.9 °C 6.3 °C 1011.7 hPa SSW 16.7 km/h 8.4 km/h 78 % 0 mm
10:09 10.2 °C 6.6 °C 1011.7 hPa SW 13 km/h 9 km/h 78 % 0 mm
10:14 10.3 °C 6.6 °C 1011.7 hPa SW 14.8 km/h 8.2 km/h 78 % 0 mm
10:19 10.3 °C 6.6 °C 1011.7 hPa SW 9.7 km/h 8.9 km/h 78 % 0 mm
10:24 10.2 °C 6.5 °C 1011.7 hPa WSW 16.7 km/h 9.8 km/h 78 % 0 mm
10:29 10.1 °C 6.4 °C 1011.7 hPa WSW 16.7 km/h 12.4 km/h 78 % 0 mm
10:34 10.2 °C 6.5 °C 1011.7 hPa SW 24.1 km/h 15.4 km/h 78 % 0 mm
10:39 10.1 °C 6.3 °C 1011.7 hPa WSW 20.4 km/h 15.4 km/h 77 % 0 mm
10:44 10.1 °C 6.4 °C 1011.7 hPa SW 18.5 km/h 11.7 km/h 78 % 0 mm
10:49 10.2 °C 6.6 °C 1011.7 hPa WSW 14.8 km/h 14 km/h 78 % 0 mm
10:54 10.4 °C 6.7 °C 1011.7 hPa SW 17.7 km/h 12.1 km/h 78 % 0 mm
10:59 10.5 °C 6.6 °C 1011.7 hPa WSW 24.1 km/h 17.9 km/h 77 % 0 mm
11:04 10.6 °C 6.7 °C 1011.7 hPa WSW 16.1 km/h 12.7 km/h 77 % 0 mm
11:09 10.8 °C 6.9 °C 1011.7 hPa West 18.5 km/h 12.6 km/h 77 % 0 mm
11:14 10.4 °C 6.9 °C 1011.7 hPa WSW 17.7 km/h 18.5 km/h 79 % 0 mm
11:19 10.2 °C 7.1 °C 1011.7 hPa WSW 18.5 km/h 10.5 km/h 81 % 0 mm
11:24 10.5 °C 7.4 °C 1011.7 hPa WSW 18.5 km/h 10.9 km/h 81 % 0 mm
11:29 10.8 °C 7.1 °C 1011.7 hPa West 27.8 km/h 13 km/h 78 % 0 mm
11:34 11 °C 7.3 °C 1011.7 hPa SW 13 km/h 12.7 km/h 78 % 0 mm
11:39 11.3 °C 7.4 °C 1011.7 hPa North 22.2 km/h 17.2 km/h 77 % 0 mm
11:44 11.2 °C 6.9 °C 1011.7 hPa West 16.7 km/h 13.5 km/h 75 % 0 mm
11:49 11.1 °C 6.8 °C 1011.7 hPa SW 18.5 km/h 10.9 km/h 75 % 0 mm
11:54 11.4 °C 7.2 °C 1011.7 hPa WSW 22.2 km/h 16.6 km/h 75 % 0 mm
11:59 11.5 °C 6.8 °C 1011.7 hPa North 25.9 km/h 17.5 km/h 73 % 0 mm
12:04 11.4 °C 6.7 °C 1011.7 hPa WSW 14.8 km/h 10.9 km/h 73 % 0 mm
12:09 11.6 °C 7.1 °C 1011.7 hPa West 18.5 km/h 13.2 km/h 74 % 0 mm
12:14 12.1 °C 7.8 °C 1011.7 hPa West 17.7 km/h 16.6 km/h 75 % 0 mm
12:19 11.6 °C 6.9 °C 1011.7 hPa West 22.2 km/h 17.4 km/h 73 % 0 mm
12:24 11.6 °C 7.3 °C 1011.7 hPa West 20.4 km/h 9.7 km/h 75 % 0 mm
12:29 11.4 °C 6.9 °C 1011.7 hPa SW 20.4 km/h 10.1 km/h 74 % 0 mm
12:34 11.4 °C 6.9 °C 1011.7 hPa SSW 16.7 km/h 9.7 km/h 74 % 0 mm
12:39 10.9 °C 7.4 °C 1012.1 hPa SSW 22.2 km/h 12.9 km/h 79 % 0.2 mm
12:44 9.7 °C 6.8 °C 1012.1 hPa North 31.5 km/h 21.1 km/h 82 % 0.2 mm
12:49 9.1 °C 6.7 °C 1012.1 hPa North 18.5 km/h 11.9 km/h 85 % 0.2 mm
12:54 9.2 °C 6.9 °C 1012.1 hPa SW 19.3 km/h 16.1 km/h 86 % 0.41 mm
12:59 9.3 °C 6.9 °C 1012.1 hPa SW 22.2 km/h 10.8 km/h 85 % 0.41 mm
13:04 9.7 °C 6.9 °C 1012.1 hPa WSW 27.8 km/h 15.8 km/h 83 % 0.41 mm
13:09 9.9 °C 7 °C 1012.1 hPa SW 20.4 km/h 11.1 km/h 82 % 0.41 mm
13:14 10.1 °C 7.1 °C 1012.1 hPa WSW 27.8 km/h 17.1 km/h 82 % 0.41 mm
13:19 9.9 °C 6.4 °C 1012.1 hPa WSW 25.9 km/h 13 km/h 79 % 0.41 mm
13:24 10 °C 6.9 °C 1012.1 hPa SW 18.5 km/h 9.7 km/h 81 % 0.41 mm
13:29 10.2 °C 6.9 °C 1012.1 hPa WSW 16.7 km/h 10.9 km/h 80 % 0.41 mm
13:34 10.4 °C 6.9 °C 1012.1 hPa WSW 14.8 km/h 14.2 km/h 79 % 0.41 mm
13:39 10.6 °C 7.2 °C 1012.1 hPa North 14.8 km/h 9.7 km/h 80 % 0.2 mm
13:44 10.9 °C 7.6 °C 1012.1 hPa SW 22.2 km/h 13.2 km/h 80 % 0.2 mm
13:49 10.8 °C 6.7 °C 1012.1 hPa WSW 33.3 km/h 30.6 km/h 76 % 0.2 mm
13:54 9.9 °C 6.4 °C 1012.4 hPa SSW 20.4 km/h 12.6 km/h 79 % 0 mm
13:59 9.7 °C 6.6 °C 1012.4 hPa SW 17.7 km/h 10.6 km/h 81 % 0 mm
14:04 9.7 °C 6.6 °C 1012.4 hPa WSW 25.9 km/h 20.3 km/h 81 % 0 mm
14:09 9.6 °C 6.7 °C 1012.4 hPa SW 17.7 km/h 12.9 km/h 82 % 0 mm
14:14 9.7 °C 6.8 °C 1012.4 hPa SW 25.9 km/h 20.3 km/h 82 % 0 mm
14:19 9.9 °C 6.8 °C 1012.4 hPa SW 22.5 km/h 16.3 km/h 81 % 0 mm
14:24 10.1 °C 6.6 °C 1012.4 hPa WSW 14.8 km/h 13.7 km/h 79 % 0 mm
14:29 10.4 °C 6.9 °C 1012.4 hPa SW 14.8 km/h 11.1 km/h 79 % 0 mm
14:34 10.6 °C 6.3 °C 1012.4 hPa WSW 24.1 km/h 15.3 km/h 75 % 0 mm
14:39 10.7 °C 6.3 °C 1012.4 hPa SSW 25.9 km/h 14.2 km/h 74 % 0 mm
14:44 10.8 °C 5.9 °C 1012.8 hPa SW 22.2 km/h 15.1 km/h 72 % 0 mm
14:49 10.8 °C 6 °C 1012.8 hPa SW 22.2 km/h 12.1 km/h 72 % 0 mm
14:54 10.4 °C 6.4 °C 1012.8 hPa SSW 25.9 km/h 14.6 km/h 76 % 0 mm
14:59 9.9 °C 6.4 °C 1012.8 hPa SSW 24.1 km/h 16.7 km/h 79 % 0 mm
15:04 9.6 °C 6.5 °C 1013.1 hPa South 22.2 km/h 15 km/h 81 % 0 mm
15:09 9.4 °C 6.3 °C 1013.1 hPa SW 20.4 km/h 13.7 km/h 81 % 0 mm
15:14 9.5 °C 6.4 °C 1013.1 hPa SW 14.8 km/h 10.9 km/h 81 % 0 mm
15:19 9.6 °C 5.6 °C 1013.1 hPa SW 16.1 km/h 12.9 km/h 76 % 0 mm
15:24 9.7 °C 5.7 °C 1013.4 hPa SW 16.7 km/h 10.9 km/h 76 % 0 mm
15:29 9.8 °C 6.1 °C 1013.1 hPa SW 16.7 km/h 8.5 km/h 78 % 0 mm
15:34 9.8 °C 6.3 °C 1013.4 hPa SSW 18.5 km/h 12.6 km/h 79 % 0 mm
15:39 10 °C 6.7 °C 1013.4 hPa SW 16.1 km/h 11.6 km/h 80 % 0 mm
15:44 10.1 °C 6.8 °C 1013.4 hPa SSW 16.7 km/h 13.2 km/h 80 % 0 mm
15:49 10.2 °C 6.9 °C 1013.4 hPa South 16.7 km/h 10.8 km/h 80 % 0 mm
15:54 10.2 °C 6.9 °C 1013.4 hPa SSW 14.8 km/h 8.7 km/h 80 % 0 mm
15:59 10.4 °C 7.2 °C 1013.4 hPa South 11.1 km/h 3.9 km/h 80 % 0 mm
16:04 10.6 °C 7.1 °C 1013.4 hPa South 11.1 km/h 6.8 km/h 79 % 0 mm
16:09 10.4 °C 6.9 °C 1013.4 hPa SSW 7.4 km/h 6.4 km/h 79 % 0 mm
16:14 10.3 °C 7 °C 1013.4 hPa SSW 8 km/h 6 km/h 80 % 0 mm
16:19 10.3 °C 6.8 °C 1013.4 hPa SSW 13 km/h 11.1 km/h 79 % 0 mm
16:24 10.3 °C 6.8 °C 1013.8 hPa SSW 18.5 km/h 9.7 km/h 79 % 0 mm
16:29 10.2 °C 5.8 °C 1013.8 hPa SW 22.2 km/h 14.3 km/h 74 % 0 mm
16:34 10.2 °C 5.9 °C 1014.1 hPa South 31.5 km/h 21.7 km/h 75 % 0 mm
16:39 9.2 °C 5.8 °C 1014.1 hPa SSW 31.5 km/h 23.2 km/h 79 % 0 mm
16:44 8.7 °C 6 °C 1014.1 hPa South 22.5 km/h 14.8 km/h 83 % 0 mm
16:49 8.5 °C 5.9 °C 1014.1 hPa SSW 19.3 km/h 16.3 km/h 84 % 0 mm
16:54 8.4 °C 6 °C 1014.1 hPa SSW 18.5 km/h 11.1 km/h 85 % 0 mm
16:59 8.4 °C 6 °C 1014.1 hPa SSW 14.8 km/h 11.3 km/h 85 % 0 mm
17:04 8.4 °C 6.2 °C 1014.1 hPa South 14.8 km/h 7.6 km/h 86 % 0 mm
17:09 8.5 °C 6.3 °C 1014.4 hPa South 7.4 km/h 5.1 km/h 86 % 0 mm
17:14 8.6 °C 6.4 °C 1014.4 hPa South 9.3 km/h 7.4 km/h 86 % 0 mm
17:19 8.7 °C 6.5 °C 1014.4 hPa South 9.3 km/h 9.8 km/h 86 % 0 mm
17:24 8.7 °C 6.3 °C 1014.4 hPa South 9.3 km/h 9 km/h 85 % 0 mm
17:29 8.7 °C 6.1 °C 1014.4 hPa South 12.9 km/h 8.4 km/h 84 % 0 mm
17:34 8.6 °C 5.9 °C 1014.4 hPa SSW 9.3 km/h 5.8 km/h 83 % 0 mm
17:39 8.7 °C 5.8 °C 1014.8 hPa SSW 11.1 km/h 6.3 km/h 82 % 0 mm
17:44 8.6 °C 5.7 °C 1014.8 hPa SSW 11.1 km/h 9.3 km/h 82 % 0 mm
17:49 8.5 °C 5.4 °C 1014.8 hPa SSW 20.4 km/h 8.7 km/h 81 % 0 mm
17:54 8.5 °C 5.4 °C 1015.1 hPa SSW 16.7 km/h 16.9 km/h 81 % 0 mm
17:59 8.4 °C 5.5 °C 1015.1 hPa SSW 20.4 km/h 15.1 km/h 82 % 0 mm
18:04 8.2 °C 5.5 °C 1015.1 hPa North 18.5 km/h 14.5 km/h 83 % 0 mm
18:14 7.8 °C 5.4 °C 1015.1 hPa North 13 km/h 9.2 km/h 85 % 0 mm
18:19 7.6 °C 5.4 °C 1015.5 hPa South 18.5 km/h 7.4 km/h 86 % 0 mm
18:24 7.4 °C 5.4 °C 1015.5 hPa South 14.8 km/h 8.9 km/h 87 % 0 mm
18:29 7.3 °C 5.5 °C 1015.5 hPa South 12.9 km/h 7.4 km/h 88 % 0 mm
18:34 7.2 °C 5.4 °C 1015.5 hPa South 13 km/h 7.2 km/h 88 % 0 mm
18:39 7.2 °C 5.4 °C 1015.8 hPa South 9.7 km/h 5.1 km/h 88 % 0 mm
18:44 7.1 °C 5.4 °C 1015.8 hPa North 9.3 km/h 7.7 km/h 89 % 0 mm
18:49 7.1 °C 5.2 °C 1015.8 hPa North 9.3 km/h 7.2 km/h 88 % 0 mm
18:54 7 °C 5.2 °C 1015.8 hPa South 7.4 km/h 7.9 km/h 88 % 0 mm
18:59 6.9 °C 5.1 °C 1015.8 hPa North 13 km/h 8.2 km/h 88 % 0 mm
19:04 6.9 °C 5.1 °C 1015.8 hPa South 11.1 km/h 9 km/h 88 % 0 mm
19:09 6.8 °C 4.9 °C 1015.8 hPa South 8 km/h 8 km/h 88 % 0 mm
19:14 6.7 °C 4.9 °C 1015.8 hPa South 11.1 km/h 6.4 km/h 88 % 0 mm
19:19 6.7 °C 4.8 °C 1016.1 hPa South 11.1 km/h 7.2 km/h 88 % 0 mm
19:24 6.7 °C 4.9 °C 1016.1 hPa South 18.5 km/h 16.7 km/h 88 % 0 mm
19:29 6.8 °C 4.8 °C 1016.1 hPa SSW 24.1 km/h 17.9 km/h 87 % 0 mm
19:34 6.7 °C 4.7 °C 1016.5 hPa SSW 18.5 km/h 11.3 km/h 87 % 0 mm
19:39 6.5 °C 4.5 °C 1016.5 hPa SSW 18.5 km/h 9.5 km/h 87 % 0 mm
19:44 6.4 °C 4.4 °C 1016.5 hPa SSW 13 km/h 6.6 km/h 87 % 0 mm
19:49 6.3 °C 4.3 °C 1016.5 hPa SSW 7.4 km/h 4.7 km/h 87 % 0 mm
19:54 6.3 °C 4.4 °C 1016.5 hPa SSW 9.3 km/h 5.3 km/h 88 % 0 mm
19:59 6.2 °C 4.3 °C 1016.5 hPa SSW 6.4 km/h 4.2 km/h 88 % 0 mm
20:04 6.1 °C 4.3 °C 1016.5 hPa SSW 5.6 km/h 4 km/h 88 % 0 mm
20:09 6.1 °C 4.2 °C 1016.5 hPa SSW 5.6 km/h 1.6 km/h 88 % 0 mm
20:14 6 °C 4.2 °C 1016.5 hPa SSW 7.4 km/h 2.7 km/h 88 % 0 mm
20:19 5.9 °C 4.3 °C 1016.8 hPa SSW 5.6 km/h 4.7 km/h 89 % 0 mm
20:24 5.9 °C 4.3 °C 1016.8 hPa SSW 8 km/h 5 km/h 89 % 0 mm
20:29 5.9 °C 4.3 °C 1016.8 hPa SSW 9.3 km/h 3.2 km/h 89 % 0 mm
20:34 5.9 °C 4.3 °C 1016.8 hPa SSW 9.3 km/h 3.5 km/h 89 % 0 mm
20:39 5.9 °C 4.3 °C 1016.8 hPa SSW 9.7 km/h 5.1 km/h 89 % 0 mm
20:44 6 °C 4.3 °C 1017.2 hPa SSW 9.3 km/h 6.3 km/h 89 % 0 mm
20:49 6.1 °C 4.4 °C 1017.2 hPa SSW 8 km/h 4.8 km/h 89 % 0 mm
20:54 6.1 °C 4.4 °C 1017.2 hPa SSW 7.4 km/h 4.3 km/h 89 % 0 mm
20:59 6.1 °C 4.4 °C 1017.2 hPa SSW 6.4 km/h 4.7 km/h 89 % 0 mm
21:04 6.2 °C 4.5 °C 1017.2 hPa SSW 5.6 km/h 3.7 km/h 89 % 0 mm
21:09 6.2 °C 4.5 °C 1017.5 hPa SSW 11.1 km/h 6.9 km/h 89 % 0 mm
21:14 6.2 °C 4.5 °C 1017.5 hPa SSW 11.1 km/h 8.2 km/h 89 % 0 mm
21:19 6.1 °C 4.4 °C 1017.5 hPa SSW 16.7 km/h 10.6 km/h 89 % 0 mm
21:24 6.1 °C 4.4 °C 1017.5 hPa SSW 14.8 km/h 8.4 km/h 89 % 0 mm
21:29 6.1 °C 4.6 °C 1017.5 hPa SSW 9.3 km/h 5 km/h 90 % 0 mm
21:34 6.1 °C 4.6 °C 1017.5 hPa SSW 13 km/h 8.2 km/h 90 % 0 mm
21:39 6.1 °C 4.6 °C 1017.5 hPa SSW 11.3 km/h 7.7 km/h 90 % 0 mm
21:40 6.1 °C 4.6 °C 1017.8 hPa North 11.1 km/h 8 km/h 90 % 0 mm
22:04 5.8 °C 4.3 °C 1017.8 hPa North 3.7 km/h 3.5 km/h 90 % 0 mm
22:09 5.7 °C 4.2 °C 1017.8 hPa SSW 5.6 km/h 3.2 km/h 90 % 0 mm
22:44 4.9 °C 3.6 °C 1017.8 hPa SSW 5.6 km/h 3.9 km/h 91 % 0 mm
22:49 4.9 °C 3.6 °C 1017.8 hPa SSW 5.6 km/h 4 km/h 91 % 0 mm
22:54 4.9 °C 3.6 °C 1017.8 hPa SSW 5.6 km/h 2.3 km/h 91 % 0 mm
22:59 4.9 °C 3.8 °C 1017.8 hPa SSW 3.7 km/h   92 % 0 mm
23:04 4.9 °C 3.7 °C 1017.8 hPa SSW 3.7 km/h 1.3 km/h 92 % 0 mm
23:09 4.9 °C 3.7 °C 1017.8 hPa SSW 3.7 km/h 2.9 km/h 92 % 0 mm
23:14 4.8 °C 3.6 °C 1017.8 hPa Calm     92 % 0 mm
23:19 4.7 °C 3.6 °C 1017.8 hPa SSW 1.9 km/h 0.6 km/h 92 % 0 mm
23:24 4.6 °C 3.4 °C 1017.8 hPa Calm     92 % 0 mm
23:29 4.4 °C 3.1 °C 1017.8 hPa Calm     91 % 0 mm
23:34 4.3 °C 2.9 °C 1017.8 hPa Calm     91 % 0 mm
23:39 4.1 °C 2.8 °C 1017.8 hPa Calm     91 % 0 mm
23:44 3.9 °C 2.6 °C 1017.8 hPa Calm     91 % 0 mm
23:49 3.7 °C 2.6 °C 1017.8 hPa SSW 1.9 km/h 0.5 km/h 92 % 0 mm
23:54 3.7 °C 2.6 °C 1017.8 hPa Calm     92 % 0 mm
23:59 3.7 °C 2.6 °C 1017.8 hPa North 3.7 km/h 1.9 km/h 92 % 0 mm
Ararat Weather
Compliments of Weather Underground - 2.25 mb
Click here to send mail.


ABOUT

Live weather data from Ararat, Victoria, Australia, 3377
Data uploaded from Cumulus every 5 minutes to Weather Underground.
This site then downloads the raw data for formatting and display.
Metric and imperial data can be displayed. Graphs and historical data available.
Includes Sun and Moon times and rain image live from BOM.

Check out Ararat Weather on Facebook, Twitter and Google +

Help support ongoing costs by checking out the ads





Follow @AraratWeather